sensor_id;sensor_type;location;lat;lon;timestamp;P1;durP1;ratioP1;P2;durP2;ratioP2
13641;SDS011;6894;52.196;9.904;2023-06-19T00:01:40;5.07;;;4.67;;
13641;SDS011;6894;52.196;9.904;2023-06-19T00:04:07;5.60;;;5.20;;
13641;SDS011;6894;52.196;9.904;2023-06-19T00:06:33;5.40;;;4.93;;
13641;SDS011;6894;52.196;9.904;2023-06-19T00:09:00;5.30;;;4.90;;
13641;SDS011;6894;52.196;9.904;2023-06-19T00:11:27;5.70;;;5.20;;
13641;SDS011;6894;52.196;9.904;2023-06-19T00:13:55;5.60;;;5.10;;
13641;SDS011;6894;52.196;9.904;2023-06-19T00:16:22;5.20;;;4.87;;
13641;SDS011;6894;52.196;9.904;2023-06-19T00:18:50;6.40;;;5.90;;
13641;SDS011;6894;52.196;9.904;2023-06-19T00:21:21;6.07;;;5.57;;
13641;SDS011;6894;52.196;9.904;2023-06-19T00:23:49;5.87;;;5.13;;
13641;SDS011;6894;52.196;9.904;2023-06-19T00:26:16;5.83;;;5.20;;
13641;SDS011;6894;52.196;9.904;2023-06-19T00:28:42;5.87;;;5.30;;
13641;SDS011;6894;52.196;9.904;2023-06-19T00:31:11;5.30;;;4.80;;
13641;SDS011;6894;52.196;9.904;2023-06-19T00:33:38;6.73;;;4.90;;
13641;SDS011;6894;52.196;9.904;2023-06-19T00:36:08;5.67;;;5.17;;
13641;SDS011;6894;52.196;9.904;2023-06-19T00:38:35;5.97;;;5.37;;
13641;SDS011;6894;52.196;9.904;2023-06-19T00:41:03;5.37;;;4.97;;
13641;SDS011;6894;52.196;9.904;2023-06-19T00:43:30;5.83;;;5.33;;
13641;SDS011;6894;52.196;9.904;2023-06-19T00:45:57;5.70;;;5.10;;
13641;SDS011;6894;52.196;9.904;2023-06-19T00:48:25;4.83;;;4.43;;
13641;SDS011;6894;52.196;9.904;2023-06-19T00:50:53;5.20;;;4.80;;
13641;SDS011;6894;52.196;9.904;2023-06-19T00:53:20;5.83;;;5.23;;
13641;SDS011;6894;52.196;9.904;2023-06-19T00:55:48;5.63;;;5.13;;
13641;SDS011;6894;52.196;9.904;2023-06-19T00:58:16;7.30;;;5.57;;
13641;SDS011;6894;52.196;9.904;2023-06-19T01:00:43;5.47;;;4.93;;
13641;SDS011;6894;52.196;9.904;2023-06-19T01:03:10;5.70;;;5.20;;
13641;SDS011;6894;52.196;9.904;2023-06-19T01:05:38;6.67;;;5.03;;
13641;SDS011;6894;52.196;9.904;2023-06-19T01:08:07;5.90;;;5.17;;
13641;SDS011;6894;52.196;9.904;2023-06-19T01:10:39;6.00;;;5.50;;
13641;SDS011;6894;52.196;9.904;2023-06-19T01:13:10;6.27;;;5.67;;
13641;SDS011;6894;52.196;9.904;2023-06-19T01:15:47;5.80;;;5.20;;
13641;SDS011;6894;52.196;9.904;2023-06-19T01:18:14;6.53;;;5.20;;
13641;SDS011;6894;52.196;9.904;2023-06-19T01:20:44;5.47;;;4.83;;
13641;SDS011;6894;52.196;9.904;2023-06-19T01:23:12;5.37;;;4.53;;
13641;SDS011;6894;52.196;9.904;2023-06-19T01:25:39;5.00;;;4.37;;
13641;SDS011;6894;52.196;9.904;2023-06-19T01:28:06;4.97;;;4.57;;
13641;SDS011;6894;52.196;9.904;2023-06-19T01:30:35;5.37;;;4.93;;
13641;SDS011;6894;52.196;9.904;2023-06-19T01:33:06;5.20;;;4.80;;
13641;SDS011;6894;52.196;9.904;2023-06-19T01:35:38;5.63;;;5.13;;
13641;SDS011;6894;52.196;9.904;2023-06-19T01:38:08;5.30;;;4.80;;
13641;SDS011;6894;52.196;9.904;2023-06-19T01:40:37;6.03;;;4.63;;
13641;SDS011;6894;52.196;9.904;2023-06-19T01:43:05;5.13;;;4.73;;
13641;SDS011;6894;52.196;9.904;2023-06-19T01:45:34;5.40;;;4.97;;
13641;SDS011;6894;52.196;9.904;2023-06-19T01:48:01;5.30;;;4.77;;
13641;SDS011;6894;52.196;9.904;2023-06-19T01:50:28;6.43;;;5.83;;
13641;SDS011;6894;52.196;9.904;2023-06-19T01:52:55;5.90;;;5.27;;
13641;SDS011;6894;52.196;9.904;2023-06-19T01:55:22;4.87;;;4.47;;
13641;SDS011;6894;52.196;9.904;2023-06-19T01:57:50;5.23;;;4.83;;
13641;SDS011;6894;52.196;9.904;2023-06-19T02:00:17;5.93;;;5.27;;
13641;SDS011;6894;52.196;9.904;2023-06-19T02:02:44;6.40;;;5.80;;
13641;SDS011;6894;52.196;9.904;2023-06-19T02:05:11;5.50;;;5.07;;
13641;SDS011;6894;52.196;9.904;2023-06-19T02:07:38;6.43;;;5.13;;
13641;SDS011;6894;52.196;9.904;2023-06-19T02:10:05;6.23;;;5.60;;
13641;SDS011;6894;52.196;9.904;2023-06-19T02:12:33;5.93;;;5.37;;
13641;SDS011;6894;52.196;9.904;2023-06-19T02:15:01;5.50;;;5.10;;
13641;SDS011;6894;52.196;9.904;2023-06-19T02:17:27;5.57;;;4.90;;
13641;SDS011;6894;52.196;9.904;2023-06-19T02:19:54;5.93;;;5.30;;
13641;SDS011;6894;52.196;9.904;2023-06-19T02:22:21;6.13;;;5.20;;
13641;SDS011;6894;52.196;9.904;2023-06-19T02:24:47;5.60;;;5.10;;
13641;SDS011;6894;52.196;9.904;2023-06-19T02:27:14;6.13;;;5.53;;
13641;SDS011;6894;52.196;9.904;2023-06-19T02:29:41;6.30;;;5.83;;
13641;SDS011;6894;52.196;9.904;2023-06-19T02:32:09;6.33;;;5.83;;
13641;SDS011;6894;52.196;9.904;2023-06-19T02:34:36;6.13;;;5.63;;
13641;SDS011;6894;52.196;9.904;2023-06-19T02:37:03;6.23;;;5.63;;
13641;SDS011;6894;52.196;9.904;2023-06-19T02:39:30;6.47;;;5.97;;
13641;SDS011;6894;52.196;9.904;2023-06-19T02:41:56;6.23;;;5.50;;
13641;SDS011;6894;52.196;9.904;2023-06-19T02:44:23;6.00;;;5.50;;
13641;SDS011;6894;52.196;9.904;2023-06-19T02:46:50;6.20;;;5.70;;
13641;SDS011;6894;52.196;9.904;2023-06-19T02:49:18;6.33;;;5.07;;
13641;SDS011;6894;52.196;9.904;2023-06-19T02:51:45;6.43;;;5.83;;
13641;SDS011;6894;52.196;9.904;2023-06-19T02:54:12;5.57;;;5.07;;
13641;SDS011;6894;52.196;9.904;2023-06-19T02:56:38;6.63;;;5.33;;
13641;SDS011;6894;52.196;9.904;2023-06-19T02:59:05;5.90;;;5.50;;
13641;SDS011;6894;52.196;9.904;2023-06-19T03:01:32;6.23;;;5.63;;
13641;SDS011;6894;52.196;9.904;2023-06-19T03:03:59;5.80;;;5.20;;
13641;SDS011;6894;52.196;9.904;2023-06-19T03:06:27;5.70;;;5.10;;
13641;SDS011;6894;52.196;9.904;2023-06-19T03:08:54;5.27;;;4.87;;
13641;SDS011;6894;52.196;9.904;2023-06-19T03:11:20;5.47;;;5.00;;
13641;SDS011;6894;52.196;9.904;2023-06-19T03:13:47;5.57;;;5.10;;
13641;SDS011;6894;52.196;9.904;2023-06-19T03:16:16;5.30;;;4.83;;
13641;SDS011;6894;52.196;9.904;2023-06-19T03:18:43;5.33;;;4.93;;
13641;SDS011;6894;52.196;9.904;2023-06-19T03:21:10;5.87;;;5.27;;
13641;SDS011;6894;52.196;9.904;2023-06-19T03:23:38;5.77;;;5.37;;
13641;SDS011;6894;52.196;9.904;2023-06-19T03:26:07;5.50;;;4.90;;
13641;SDS011;6894;52.196;9.904;2023-06-19T03:28:36;5.23;;;4.83;;
13641;SDS011;6894;52.196;9.904;2023-06-19T03:31:02;5.90;;;5.30;;
13641;SDS011;6894;52.196;9.904;2023-06-19T03:33:29;6.10;;;5.50;;
13641;SDS011;6894;52.196;9.904;2023-06-19T03:35:56;5.43;;;5.00;;
13641;SDS011;6894;52.196;9.904;2023-06-19T03:38:23;4.67;;;4.27;;
13641;SDS011;6894;52.196;9.904;2023-06-19T03:40:51;6.20;;;5.60;;
13641;SDS011;6894;52.196;9.904;2023-06-19T03:43:17;6.27;;;5.67;;
13641;SDS011;6894;52.196;9.904;2023-06-19T03:45:44;6.00;;;4.80;;
13641;SDS011;6894;52.196;9.904;2023-06-19T03:48:11;6.87;;;5.50;;
13641;SDS011;6894;52.196;9.904;2023-06-19T03:50:37;7.00;;;5.67;;
13641;SDS011;6894;52.196;9.904;2023-06-19T03:53:05;6.20;;;5.30;;
13641;SDS011;6894;52.196;9.904;2023-06-19T03:55:32;7.20;;;5.50;;
13641;SDS011;6894;52.196;9.904;2023-06-19T03:58:00;7.60;;;5.97;;
13641;SDS011;6894;52.196;9.904;2023-06-19T04:00:27;5.90;;;5.40;;
13641;SDS011;6894;52.196;9.904;2023-06-19T04:02:54;6.57;;;5.97;;
13641;SDS011;6894;52.196;9.904;2023-06-19T04:05:21;6.10;;;5.50;;
13641;SDS011;6894;52.196;9.904;2023-06-19T04:07:48;5.70;;;5.20;;
13641;SDS011;6894;52.196;9.904;2023-06-19T04:10:15;6.03;;;5.40;;
13641;SDS011;6894;52.196;9.904;2023-06-19T04:12:42;6.00;;;5.50;;
13641;SDS011;6894;52.196;9.904;2023-06-19T04:15:11;7.33;;;5.40;;
13641;SDS011;6894;52.196;9.904;2023-06-19T04:17:38;5.60;;;5.10;;
13641;SDS011;6894;52.196;9.904;2023-06-19T04:20:05;5.63;;;5.13;;
13641;SDS011;6894;52.196;9.904;2023-06-19T04:22:35;5.47;;;4.97;;
13641;SDS011;6894;52.196;9.904;2023-06-19T04:25:03;6.10;;;5.10;;
13641;SDS011;6894;52.196;9.904;2023-06-19T04:27:30;4.73;;;4.33;;
13641;SDS011;6894;52.196;9.904;2023-06-19T04:29:57;5.93;;;5.43;;
13641;SDS011;6894;52.196;9.904;2023-06-19T04:32:25;5.40;;;4.97;;
13641;SDS011;6894;52.196;9.904;2023-06-19T04:34:52;5.63;;;5.13;;
13641;SDS011;6894;52.196;9.904;2023-06-19T04:37:19;6.00;;;5.40;;
13641;SDS011;6894;52.196;9.904;2023-06-19T04:39:45;5.70;;;5.20;;
13641;SDS011;6894;52.196;9.904;2023-06-19T04:42:12;6.00;;;5.50;;
13641;SDS011;6894;52.196;9.904;2023-06-19T04:44:44;5.90;;;5.40;;
13641;SDS011;6894;52.196;9.904;2023-06-19T04:47:11;5.87;;;5.20;;
13641;SDS011;6894;52.196;9.904;2023-06-19T04:49:39;6.37;;;5.87;;
13641;SDS011;6894;52.196;9.904;2023-06-19T04:52:06;5.53;;;5.03;;
13641;SDS011;6894;52.196;9.904;2023-06-19T04:54:33;6.13;;;5.33;;
13641;SDS011;6894;52.196;9.904;2023-06-19T04:57:00;5.83;;;5.30;;
13641;SDS011;6894;52.196;9.904;2023-06-19T04:59:27;5.97;;;5.47;;
13641;SDS011;6894;52.196;9.904;2023-06-19T05:01:55;5.83;;;5.27;;
13641;SDS011;6894;52.196;9.904;2023-06-19T05:04:22;6.90;;;5.50;;
13641;SDS011;6894;52.196;9.904;2023-06-19T05:06:50;6.53;;;5.93;;
13641;SDS011;6894;52.196;9.904;2023-06-19T05:09:17;6.33;;;5.73;;
13641;SDS011;6894;52.196;9.904;2023-06-19T05:11:45;8.23;;;5.70;;
13641;SDS011;6894;52.196;9.904;2023-06-19T05:14:11;7.57;;;6.60;;
13641;SDS011;6894;52.196;9.904;2023-06-19T05:16:39;6.40;;;5.90;;
13641;SDS011;6894;52.196;9.904;2023-06-19T05:19:06;7.50;;;6.77;;
13641;SDS011;6894;52.196;9.904;2023-06-19T05:21:32;11.67;;;6.17;;
13641;SDS011;6894;52.196;9.904;2023-06-19T05:24:01;5.70;;;5.03;;
13641;SDS011;6894;52.196;9.904;2023-06-19T05:26:27;6.17;;;5.53;;
13641;SDS011;6894;52.196;9.904;2023-06-19T05:28:54;5.50;;;5.10;;
13641;SDS011;6894;52.196;9.904;2023-06-19T05:31:21;6.23;;;5.73;;
13641;SDS011;6894;52.196;9.904;2023-06-19T05:33:47;6.63;;;6.00;;
13641;SDS011;6894;52.196;9.904;2023-06-19T05:36:14;6.87;;;6.17;;
13641;SDS011;6894;52.196;9.904;2023-06-19T05:38:41;6.53;;;5.80;;
13641;SDS011;6894;52.196;9.904;2023-06-19T05:41:09;6.07;;;5.57;;
13641;SDS011;6894;52.196;9.904;2023-06-19T05:43:36;6.13;;;5.40;;
13641;SDS011;6894;52.196;9.904;2023-06-19T05:46:02;6.57;;;5.70;;
13641;SDS011;6894;52.196;9.904;2023-06-19T05:48:29;5.97;;;5.37;;
13641;SDS011;6894;52.196;9.904;2023-06-19T05:50:56;7.53;;;5.90;;
13641;SDS011;6894;52.196;9.904;2023-06-19T05:53:22;7.43;;;6.73;;
13641;SDS011;6894;52.196;9.904;2023-06-19T05:55:49;7.03;;;6.53;;
13641;SDS011;6894;52.196;9.904;2023-06-19T05:58:17;8.80;;;6.30;;
13641;SDS011;6894;52.196;9.904;2023-06-19T06:00:45;7.43;;;6.70;;
13641;SDS011;6894;52.196;9.904;2023-06-19T06:03:11;7.27;;;6.60;;
13641;SDS011;6894;52.196;9.904;2023-06-19T06:05:38;6.47;;;5.97;;
13641;SDS011;6894;52.196;9.904;2023-06-19T06:08:05;7.03;;;6.37;;
13641;SDS011;6894;52.196;9.904;2023-06-19T06:10:32;7.90;;;7.20;;
13641;SDS011;6894;52.196;9.904;2023-06-19T06:12:59;7.33;;;6.63;;
13641;SDS011;6894;52.196;9.904;2023-06-19T06:15:27;10.43;;;6.87;;
13641;SDS011;6894;52.196;9.904;2023-06-19T06:17:54;7.40;;;6.80;;
13641;SDS011;6894;52.196;9.904;2023-06-19T06:20:21;7.37;;;6.67;;
13641;SDS011;6894;52.196;9.904;2023-06-19T06:22:48;7.90;;;7.20;;
13641;SDS011;6894;52.196;9.904;2023-06-19T06:25:14;8.37;;;7.67;;
13641;SDS011;6894;52.196;9.904;2023-06-19T06:27:41;8.47;;;7.77;;
13641;SDS011;6894;52.196;9.904;2023-06-19T06:30:08;7.97;;;7.33;;
13641;SDS011;6894;52.196;9.904;2023-06-19T06:32:38;8.30;;;7.53;;
13641;SDS011;6894;52.196;9.904;2023-06-19T06:35:05;8.17;;;7.47;;
13641;SDS011;6894;52.196;9.904;2023-06-19T06:37:32;8.57;;;7.63;;
13641;SDS011;6894;52.196;9.904;2023-06-19T06:39:59;8.47;;;7.67;;
13641;SDS011;6894;52.196;9.904;2023-06-19T06:42:25;8.77;;;7.73;;
13641;SDS011;6894;52.196;9.904;2023-06-19T06:44:52;9.10;;;7.60;;
13641;SDS011;6894;52.196;9.904;2023-06-19T06:47:19;7.07;;;6.20;;
13641;SDS011;6894;52.196;9.904;2023-06-19T06:49:47;7.10;;;6.43;;
13641;SDS011;6894;52.196;9.904;2023-06-19T06:52:14;8.07;;;7.43;;
13641;SDS011;6894;52.196;9.904;2023-06-19T06:54:40;8.90;;;7.43;;
13641;SDS011;6894;52.196;9.904;2023-06-19T06:57:07;8.27;;;6.87;;
13641;SDS011;6894;52.196;9.904;2023-06-19T06:59:34;6.83;;;6.13;;
13641;SDS011;6894;52.196;9.904;2023-06-19T07:02:00;8.60;;;6.40;;
13641;SDS011;6894;52.196;9.904;2023-06-19T07:04:27;8.13;;;6.50;;
13641;SDS011;6894;52.196;9.904;2023-06-19T07:06:55;8.63;;;6.33;;
13641;SDS011;6894;52.196;9.904;2023-06-19T07:09:23;7.37;;;6.07;;
13641;SDS011;6894;52.196;9.904;2023-06-19T07:11:50;7.40;;;6.40;;
13641;SDS011;6894;52.196;9.904;2023-06-19T07:14:16;7.17;;;6.30;;
13641;SDS011;6894;52.196;9.904;2023-06-19T07:16:43;6.43;;;5.83;;
13641;SDS011;6894;52.196;9.904;2023-06-19T07:19:11;6.80;;;6.20;;
13641;SDS011;6894;52.196;9.904;2023-06-19T07:21:38;7.63;;;6.37;;
13641;SDS011;6894;52.196;9.904;2023-06-19T07:24:07;6.50;;;5.90;;
13641;SDS011;6894;52.196;9.904;2023-06-19T07:26:34;6.63;;;5.97;;
13641;SDS011;6894;52.196;9.904;2023-06-19T07:29:01;6.90;;;6.30;;
13641;SDS011;6894;52.196;9.904;2023-06-19T07:31:28;6.77;;;6.17;;
13641;SDS011;6894;52.196;9.904;2023-06-19T07:33:54;7.20;;;6.53;;
13641;SDS011;6894;52.196;9.904;2023-06-19T07:36:21;7.03;;;6.33;;
13641;SDS011;6894;52.196;9.904;2023-06-19T07:38:48;7.60;;;6.80;;
13641;SDS011;6894;52.196;9.904;2023-06-19T07:41:16;7.13;;;6.53;;
13641;SDS011;6894;52.196;9.904;2023-06-19T07:43:43;7.00;;;6.30;;
13641;SDS011;6894;52.196;9.904;2023-06-19T07:46:09;6.87;;;6.17;;
13641;SDS011;6894;52.196;9.904;2023-06-19T07:48:36;6.90;;;6.30;;
13641;SDS011;6894;52.196;9.904;2023-06-19T07:51:03;7.10;;;6.50;;
13641;SDS011;6894;52.196;9.904;2023-06-19T07:53:30;8.87;;;6.43;;
13641;SDS011;6894;52.196;9.904;2023-06-19T07:55:56;6.80;;;6.17;;
13641;SDS011;6894;52.196;9.904;2023-06-19T07:58:24;6.43;;;5.83;;
13641;SDS011;6894;52.196;9.904;2023-06-19T08:00:51;8.80;;;6.20;;
13641;SDS011;6894;52.196;9.904;2023-06-19T08:03:18;7.00;;;6.40;;
13641;SDS011;6894;52.196;9.904;2023-06-19T08:05:44;6.83;;;6.23;;
13641;SDS011;6894;52.196;9.904;2023-06-19T08:08:11;7.40;;;5.90;;
13641;SDS011;6894;52.196;9.904;2023-06-19T08:10:38;7.22;;;6.63;;
13641;SDS011;6894;52.196;9.904;2023-06-19T08:13:06;6.60;;;6.10;;
13641;SDS011;6894;52.196;9.904;2023-06-19T08:15:34;6.95;;;6.00;;
13641;SDS011;6894;52.196;9.904;2023-06-19T08:18:01;6.70;;;6.07;;
13641;SDS011;6894;52.196;9.904;2023-06-19T08:20:27;6.80;;;6.18;;
13641;SDS011;6894;52.196;9.904;2023-06-19T08:22:54;6.82;;;6.32;;
13641;SDS011;6894;52.196;9.904;2023-06-19T08:25:22;6.50;;;5.93;;
13641;SDS011;6894;52.196;9.904;2023-06-19T08:27:48;6.53;;;5.93;;
13641;SDS011;6894;52.196;9.904;2023-06-19T08:30:15;6.30;;;5.70;;
13641;SDS011;6894;52.196;9.904;2023-06-19T08:32:45;8.20;;;5.90;;
13641;SDS011;6894;52.196;9.904;2023-06-19T08:35:13;6.93;;;6.25;;
13641;SDS011;6894;52.196;9.904;2023-06-19T08:37:40;7.30;;;6.15;;
13641;SDS011;6894;52.196;9.904;2023-06-19T08:40:07;6.75;;;6.25;;
13641;SDS011;6894;52.196;9.904;2023-06-19T08:42:35;6.40;;;5.72;;
13641;SDS011;6894;52.196;9.904;2023-06-19T08:45:02;7.30;;;6.70;;
13641;SDS011;6894;52.196;9.904;2023-06-19T08:47:29;6.32;;;5.82;;
13641;SDS011;6894;52.196;9.904;2023-06-19T08:49:58;6.70;;;6.20;;
13641;SDS011;6894;52.196;9.904;2023-06-19T08:52:24;7.00;;;6.25;;
13641;SDS011;6894;52.196;9.904;2023-06-19T08:54:51;6.78;;;6.03;;
13641;SDS011;6894;52.196;9.904;2023-06-19T08:57:18;7.00;;;6.32;;
13641;SDS011;6894;52.196;9.904;2023-06-19T08:59:47;6.97;;;6.40;;
13641;SDS011;6894;52.196;9.904;2023-06-19T09:02:15;6.45;;;5.95;;
13641;SDS011;6894;52.196;9.904;2023-06-19T09:04:41;6.38;;;5.97;;
13641;SDS011;6894;52.196;9.904;2023-06-19T09:07:11;6.13;;;5.72;;
13641;SDS011;6894;52.196;9.904;2023-06-19T09:09:43;6.80;;;6.20;;
13641;SDS011;6894;52.196;9.904;2023-06-19T09:12:12;7.03;;;6.43;;
13641;SDS011;6894;52.196;9.904;2023-06-19T09:14:40;6.97;;;6.28;;
13641;SDS011;6894;52.196;9.904;2023-06-19T09:17:10;7.28;;;6.68;;
13641;SDS011;6894;52.196;9.904;2023-06-19T09:19:38;6.80;;;6.20;;
13641;SDS011;6894;52.196;9.904;2023-06-19T09:22:15;6.35;;;5.85;;
13641;SDS011;6894;52.196;9.904;2023-06-19T09:24:44;6.22;;;5.63;;
13641;SDS011;6894;52.196;9.904;2023-06-19T09:27:11;5.85;;;5.35;;
13641;SDS011;6894;52.196;9.904;2023-06-19T09:29:41;5.68;;;5.28;;
13641;SDS011;6894;52.196;9.904;2023-06-19T09:32:16;6.68;;;6.03;;
13641;SDS011;6894;52.196;9.904;2023-06-19T09:34:43;5.82;;;5.25;;
13641;SDS011;6894;52.196;9.904;2023-06-19T09:37:10;5.78;;;5.28;;
13641;SDS011;6894;52.196;9.904;2023-06-19T09:39:39;5.70;;;5.20;;
13641;SDS011;6894;52.196;9.904;2023-06-19T09:42:07;5.93;;;5.47;;
13641;SDS011;6894;52.196;9.904;2023-06-19T09:44:38;5.80;;;5.40;;
13641;SDS011;6894;52.196;9.904;2023-06-19T09:47:12;6.30;;;5.63;;
13641;SDS011;6894;52.196;9.904;2023-06-19T09:49:45;6.20;;;5.78;;
13641;SDS011;6894;52.196;9.904;2023-06-19T09:52:15;6.00;;;5.53;;
13641;SDS011;6894;52.196;9.904;2023-06-19T09:54:43;4.93;;;4.63;;
13641;SDS011;6894;52.196;9.904;2023-06-19T09:57:10;6.05;;;5.55;;
13641;SDS011;6894;52.196;9.904;2023-06-19T09:59:37;5.78;;;5.28;;
13641;SDS011;6894;52.196;9.904;2023-06-19T10:02:05;6.60;;;5.57;;
13641;SDS011;6894;52.196;9.904;2023-06-19T10:04:41;5.90;;;5.50;;
13641;SDS011;6894;52.196;9.904;2023-06-19T10:07:14;5.90;;;5.40;;
13641;SDS011;6894;52.196;9.904;2023-06-19T10:09:55;5.65;;;5.15;;
13641;SDS011;6894;52.196;9.904;2023-06-19T10:12:38;6.00;;;5.60;;
13641;SDS011;6894;52.196;9.904;2023-06-19T10:15:09;5.43;;;5.03;;
13641;SDS011;6894;52.196;9.904;2023-06-19T10:17:38;5.90;;;5.40;;
13641;SDS011;6894;52.196;9.904;2023-06-19T10:20:17;6.28;;;5.70;;
13641;SDS011;6894;52.196;9.904;2023-06-19T10:22:50;6.07;;;5.53;;
13641;SDS011;6894;52.196;9.904;2023-06-19T10:25:32;6.68;;;6.15;;
13641;SDS011;6894;52.196;9.904;2023-06-19T10:28:00;6.28;;;5.78;;
13641;SDS011;6894;52.196;9.904;2023-06-19T10:30:30;6.15;;;5.65;;
13641;SDS011;6894;52.196;9.904;2023-06-19T10:32:59;6.40;;;6.00;;
13641;SDS011;6894;52.196;9.904;2023-06-19T10:35:29;6.15;;;5.65;;
13641;SDS011;6894;52.196;9.904;2023-06-19T10:38:04;6.82;;;6.22;;
13641;SDS011;6894;52.196;9.904;2023-06-19T10:40:30;6.18;;;5.57;;
13641;SDS011;6894;52.196;9.904;2023-06-19T10:42:58;7.03;;;6.22;;
13641;SDS011;6894;52.196;9.904;2023-06-19T10:45:25;6.00;;;5.53;;
13641;SDS011;6894;52.196;9.904;2023-06-19T10:47:53;6.78;;;6.28;;
13641;SDS011;6894;52.196;9.904;2023-06-19T10:50:21;5.82;;;5.43;;
13641;SDS011;6894;52.196;9.904;2023-06-19T10:52:48;6.10;;;5.63;;
13641;SDS011;6894;52.196;9.904;2023-06-19T10:55:20;6.82;;;6.22;;
13641;SDS011;6894;52.196;9.904;2023-06-19T10:57:49;6.57;;;6.07;;
13641;SDS011;6894;52.196;9.904;2023-06-19T11:00:22;6.65;;;6.07;;
13641;SDS011;6894;52.196;9.904;2023-06-19T11:02:53;6.70;;;6.20;;
13641;SDS011;6894;52.196;9.904;2023-06-19T11:05:21;7.03;;;6.32;;
13641;SDS011;6894;52.196;9.904;2023-06-19T11:07:52;6.10;;;5.60;;
13641;SDS011;6894;52.196;9.904;2023-06-19T11:10:21;5.38;;;4.97;;
13641;SDS011;6894;52.196;9.904;2023-06-19T11:12:52;5.55;;;5.15;;
13641;SDS011;6894;52.196;9.904;2023-06-19T11:15:20;6.32;;;5.88;;
13641;SDS011;6894;52.196;9.904;2023-06-19T11:17:54;5.43;;;4.95;;
13641;SDS011;6894;52.196;9.904;2023-06-19T11:20:21;5.03;;;4.63;;
13641;SDS011;6894;52.196;9.904;2023-06-19T11:22:53;5.13;;;4.72;;
13641;SDS011;6894;52.196;9.904;2023-06-19T11:25:21;4.68;;;4.32;;
13641;SDS011;6894;52.196;9.904;2023-06-19T11:27:49;4.45;;;4.03;;
13641;SDS011;6894;52.196;9.904;2023-06-19T11:30:17;4.38;;;3.92;;
13641;SDS011;6894;52.196;9.904;2023-06-19T11:32:46;4.43;;;4.00;;
13641;SDS011;6894;52.196;9.904;2023-06-19T11:35:15;4.35;;;4.05;;
13641;SDS011;6894;52.196;9.904;2023-06-19T11:37:42;3.80;;;3.45;;
13641;SDS011;6894;52.196;9.904;2023-06-19T11:40:10;3.75;;;3.45;;
13641;SDS011;6894;52.196;9.904;2023-06-19T11:42:46;4.57;;;3.85;;
13641;SDS011;6894;52.196;9.904;2023-06-19T11:45:15;4.60;;;3.67;;
13641;SDS011;6894;52.196;9.904;2023-06-19T11:47:45;4.10;;;3.70;;
13641;SDS011;6894;52.196;9.904;2023-06-19T11:50:12;4.15;;;3.85;;
13641;SDS011;6894;52.196;9.904;2023-06-19T11:52:41;4.50;;;4.10;;
13641;SDS011;6894;52.196;9.904;2023-06-19T11:55:09;5.45;;;4.40;;
13641;SDS011;6894;52.196;9.904;2023-06-19T11:57:36;4.25;;;3.85;;
13641;SDS011;6894;52.196;9.904;2023-06-19T12:00:11;5.35;;;4.95;;
13641;SDS011;6894;52.196;9.904;2023-06-19T12:02:41;4.75;;;4.35;;
13641;SDS011;6894;52.196;9.904;2023-06-19T12:05:09;4.70;;;4.30;;
13641;SDS011;6894;52.196;9.904;2023-06-19T12:07:37;5.68;;;4.25;;
13641;SDS011;6894;52.196;9.904;2023-06-19T12:10:04;4.90;;;4.60;;
13641;SDS011;6894;52.196;9.904;2023-06-19T12:12:35;4.85;;;4.53;;
13641;SDS011;6894;52.196;9.904;2023-06-19T12:15:02;4.80;;;4.25;;
13641;SDS011;6894;52.196;9.904;2023-06-19T12:17:31;5.15;;;4.68;;
13641;SDS011;6894;52.196;9.904;2023-06-19T12:19:58;4.80;;;4.50;;
13641;SDS011;6894;52.196;9.904;2023-06-19T12:22:26;4.60;;;4.20;;
13641;SDS011;6894;52.196;9.904;2023-06-19T12:24:53;4.70;;;4.30;;
13641;SDS011;6894;52.196;9.904;2023-06-19T12:27:20;4.60;;;3.42;;
13641;SDS011;6894;52.196;9.904;2023-06-19T12:29:47;3.40;;;3.20;;
13641;SDS011;6894;52.196;9.904;2023-06-19T12:32:13;3.88;;;2.70;;
13641;SDS011;6894;52.196;9.904;2023-06-19T12:34:41;3.20;;;2.90;;
13641;SDS011;6894;52.196;9.904;2023-06-19T12:37:11;2.60;;;2.40;;
13641;SDS011;6894;52.196;9.904;2023-06-19T12:39:38;2.97;;;2.78;;
13641;SDS011;6894;52.196;9.904;2023-06-19T12:42:06;3.60;;;2.72;;
13641;SDS011;6894;52.196;9.904;2023-06-19T12:44:33;2.90;;;2.70;;
13641;SDS011;6894;52.196;9.904;2023-06-19T12:47:00;3.15;;;2.80;;
13641;SDS011;6894;52.196;9.904;2023-06-19T12:49:27;2.70;;;2.50;;
13641;SDS011;6894;52.196;9.904;2023-06-19T12:51:56;3.15;;;2.95;;
13641;SDS011;6894;52.196;9.904;2023-06-19T12:54:22;3.25;;;2.75;;
13641;SDS011;6894;52.196;9.904;2023-06-19T12:56:49;3.00;;;2.60;;
13641;SDS011;6894;52.196;9.904;2023-06-19T12:59:16;2.70;;;2.50;;
13641;SDS011;6894;52.196;9.904;2023-06-19T13:01:43;3.03;;;2.30;;
13641;SDS011;6894;52.196;9.904;2023-06-19T13:04:11;3.72;;;2.00;;
13641;SDS011;6894;52.196;9.904;2023-06-19T13:06:38;2.92;;;2.35;;
13641;SDS011;6894;52.196;9.904;2023-06-19T13:09:06;2.30;;;2.20;;
13641;SDS011;6894;52.196;9.904;2023-06-19T13:11:34;3.30;;;2.63;;
13641;SDS011;6894;52.196;9.904;2023-06-19T13:14:01;3.13;;;2.17;;
13641;SDS011;6894;52.196;9.904;2023-06-19T13:16:28;2.83;;;2.63;;
13641;SDS011;6894;52.196;9.904;2023-06-19T13:18:56;2.42;;;2.10;;
13641;SDS011;6894;52.196;9.904;2023-06-19T13:21:23;2.72;;;2.53;;
13641;SDS011;6894;52.196;9.904;2023-06-19T13:23:50;2.65;;;2.10;;
13641;SDS011;6894;52.196;9.904;2023-06-19T13:26:18;2.38;;;2.28;;
13641;SDS011;6894;52.196;9.904;2023-06-19T13:28:44;4.28;;;2.65;;
13641;SDS011;6894;52.196;9.904;2023-06-19T13:31:11;2.55;;;2.17;;
13641;SDS011;6894;52.196;9.904;2023-06-19T13:33:38;4.07;;;2.42;;
13641;SDS011;6894;52.196;9.904;2023-06-19T13:36:05;2.88;;;2.58;;
13641;SDS011;6894;52.196;9.904;2023-06-19T13:38:31;2.80;;;2.60;;
13641;SDS011;6894;52.196;9.904;2023-06-19T13:40:58;2.42;;;2.17;;
13641;SDS011;6894;52.196;9.904;2023-06-19T13:43:26;2.55;;;2.35;;
13641;SDS011;6894;52.196;9.904;2023-06-19T13:45:53;2.83;;;2.60;;
13641;SDS011;6894;52.196;9.904;2023-06-19T13:48:19;3.33;;;3.13;;
13641;SDS011;6894;52.196;9.904;2023-06-19T13:50:46;3.30;;;3.10;;
13641;SDS011;6894;52.196;9.904;2023-06-19T13:53:13;3.42;;;3.22;;
13641;SDS011;6894;52.196;9.904;2023-06-19T13:55:40;3.00;;;2.80;;
13641;SDS011;6894;52.196;9.904;2023-06-19T13:58:06;3.53;;;3.22;;
13641;SDS011;6894;52.196;9.904;2023-06-19T14:00:34;3.92;;;3.03;;
13641;SDS011;6894;52.196;9.904;2023-06-19T14:03:01;4.00;;;3.60;;
13641;SDS011;6894;52.196;9.904;2023-06-19T14:05:31;3.22;;;3.03;;
13641;SDS011;6894;52.196;9.904;2023-06-19T14:07:58;3.55;;;3.35;;
13641;SDS011;6894;52.196;9.904;2023-06-19T14:10:25;3.30;;;3.10;;
13641;SDS011;6894;52.196;9.904;2023-06-19T14:12:52;3.72;;;3.42;;
13641;SDS011;6894;52.196;9.904;2023-06-19T14:15:18;3.65;;;3.35;;
13641;SDS011;6894;52.196;9.904;2023-06-19T14:17:46;3.25;;;3.05;;
13641;SDS011;6894;52.196;9.904;2023-06-19T14:20:13;3.70;;;3.40;;
13641;SDS011;6894;52.196;9.904;2023-06-19T14:22:40;3.72;;;3.42;;
13641;SDS011;6894;52.196;9.904;2023-06-19T14:25:07;3.33;;;3.13;;
13641;SDS011;6894;52.196;9.904;2023-06-19T14:27:34;3.35;;;3.15;;
13641;SDS011;6894;52.196;9.904;2023-06-19T14:30:01;3.40;;;3.20;;
13641;SDS011;6894;52.196;9.904;2023-06-19T14:32:29;3.67;;;3.45;;
13641;SDS011;6894;52.196;9.904;2023-06-19T14:34:57;3.53;;;3.33;;
13641;SDS011;6894;52.196;9.904;2023-06-19T14:37:24;3.90;;;3.47;;
13641;SDS011;6894;52.196;9.904;2023-06-19T14:39:50;3.53;;;3.17;;
13641;SDS011;6894;52.196;9.904;2023-06-19T14:42:17;3.50;;;3.30;;
13641;SDS011;6894;52.196;9.904;2023-06-19T14:44:44;4.65;;;3.22;;
13641;SDS011;6894;52.196;9.904;2023-06-19T14:47:11;4.03;;;3.70;;
13641;SDS011;6894;52.196;9.904;2023-06-19T14:49:38;4.15;;;3.53;;
13641;SDS011;6894;52.196;9.904;2023-06-19T14:52:07;3.80;;;3.50;;
13641;SDS011;6894;52.196;9.904;2023-06-19T14:54:33;4.18;;;3.38;;
13641;SDS011;6894;52.196;9.904;2023-06-19T14:57:00;3.30;;;3.10;;
13641;SDS011;6894;52.196;9.904;2023-06-19T14:59:27;3.92;;;3.70;;
13641;SDS011;6894;52.196;9.904;2023-06-19T15:01:54;4.22;;;3.83;;
13641;SDS011;6894;52.196;9.904;2023-06-19T15:04:20;4.25;;;3.80;;